createdAt,value
2023-01-21T00:00:59.321Z,98932.19
2023-01-21T00:03:26.893Z,98928.84
2023-01-21T00:05:54.135Z,98927.16
2023-01-21T00:08:21.300Z,98930.34
2023-01-21T00:10:48.740Z,98926.25
2023-01-21T00:13:15.992Z,98923.66
2023-01-21T00:15:43.275Z,98925.31
2023-01-21T00:18:10.903Z,98926.03
2023-01-21T00:20:38.248Z,98926.59
2023-01-21T00:23:05.450Z,98938.06
2023-01-21T00:25:32.912Z,98941.56
2023-01-21T00:28:00.620Z,98940.00
2023-01-21T00:30:27.890Z,98944.28
2023-01-21T00:32:55.312Z,98951.75
2023-01-21T00:35:22.537Z,98956.63
2023-01-21T00:37:51.094Z,98957.84
2023-01-21T00:40:18.887Z,98946.63
2023-01-21T00:42:46.265Z,98940.59
2023-01-21T00:45:13.543Z,98941.72
2023-01-21T00:47:41.028Z,98944.59
2023-01-21T00:50:09.021Z,98946.16
2023-01-21T00:52:36.174Z,98942.34
2023-01-21T00:55:03.698Z,98934.75
2023-01-21T00:57:30.914Z,98932.69
2023-01-21T00:59:58.179Z,98930.91
2023-01-21T01:02:25.683Z,98927.13
2023-01-21T01:04:52.902Z,98928.56
2023-01-21T01:07:20.116Z,98936.81
2023-01-21T01:09:47.529Z,98939.06
2023-01-21T01:12:14.776Z,98935.31
2023-01-21T01:14:42.313Z,98942.75
2023-01-21T01:17:09.803Z,98949.97
2023-01-21T01:19:36.958Z,98958.81
2023-01-21T01:22:04.175Z,98952.13
2023-01-21T01:24:31.686Z,98949.75
2023-01-21T01:26:58.864Z,98955.09
2023-01-21T01:29:26.304Z,98949.22
2023-01-21T01:31:53.831Z,98943.53
2023-01-21T01:34:21.009Z,98941.84
2023-01-21T01:36:48.783Z,98946.94
2023-01-21T01:39:16.230Z,98951.34
2023-01-21T01:41:43.711Z,98947.09
2023-01-21T01:44:29.718Z,98938.62
2023-01-21T01:46:57.169Z,98942.00
2023-01-21T01:49:24.386Z,98942.09
2023-01-21T01:51:59.152Z,98941.03
2023-01-21T01:54:30.412Z,98942.09
2023-01-21T01:56:58.333Z,98941.63
2023-01-21T01:59:25.585Z,98944.25
2023-01-21T02:01:53.079Z,98937.94
2023-01-21T02:04:21.364Z,98936.88
2023-01-21T02:06:49.117Z,98938.50
2023-01-21T02:09:16.298Z,98931.69
2023-01-21T02:11:43.481Z,98940.00
2023-01-21T02:14:10.913Z,98931.16
2023-01-21T02:16:41.487Z,98930.28
2023-01-21T02:19:23.775Z,98935.47
2023-01-21T02:21:55.764Z,98936.81
2023-01-21T02:24:32.041Z,98927.41
2023-01-21T02:27:09.204Z,98936.00
2023-01-21T02:29:55.446Z,98937.22
2023-01-21T02:32:41.901Z,98936.50
2023-01-21T02:35:15.049Z,98941.69
2023-01-21T02:37:50.102Z,98930.06
2023-01-21T02:40:26.444Z,98940.09
2023-01-21T02:43:09.424Z,98946.25
2023-01-21T02:45:47.460Z,98941.19
2023-01-21T02:48:14.883Z,98942.09
2023-01-21T02:50:45.611Z,98941.87
2023-01-21T02:53:29.109Z,98939.53
2023-01-21T02:55:57.543Z,98932.09
2023-01-21T02:58:25.973Z,98933.78
2023-01-21T03:01:16.465Z,98923.16
2023-01-21T03:03:47.014Z,98921.97
2023-01-21T03:06:35.819Z,98914.31
2023-01-21T03:09:13.528Z,98915.00
2023-01-21T03:11:40.920Z,98911.78
2023-01-21T03:14:33.245Z,98918.69
2023-01-21T03:17:04.610Z,98923.44
2023-01-21T03:19:33.552Z,98934.37
2023-01-21T03:22:01.986Z,98940.56
2023-01-21T03:24:29.151Z,98938.44
2023-01-21T03:26:58.999Z,98945.41
2023-01-21T03:29:26.899Z,98939.81
2023-01-21T03:31:55.582Z,98940.03
2023-01-21T03:34:23.826Z,98941.41
2023-01-21T03:36:51.001Z,98940.06
2023-01-21T03:39:19.526Z,98940.41
2023-01-21T03:41:47.302Z,98944.91
2023-01-21T03:44:14.538Z,98957.28
2023-01-21T03:46:44.482Z,98963.75
2023-01-21T03:49:16.290Z,98965.13
2023-01-21T03:51:45.517Z,98959.97
2023-01-21T03:54:12.961Z,98967.72
2023-01-21T03:56:40.091Z,98965.19
2023-01-21T03:59:07.595Z,98969.12
2023-01-21T04:01:35.058Z,98973.09
2023-01-21T04:04:02.550Z,98973.06
2023-01-21T04:06:29.695Z,98977.47
2023-01-21T04:08:56.942Z,98982.09
2023-01-21T04:11:24.566Z,98992.38
2023-01-21T04:13:51.794Z,98996.97
2023-01-21T04:16:18.933Z,98991.66
2023-01-21T04:18:47.662Z,98993.53
2023-01-21T04:21:15.054Z,98996.50
2023-01-21T04:23:42.235Z,98992.44
2023-01-21T04:26:09.660Z,99003.22
2023-01-21T04:28:36.888Z,99003.00
2023-01-21T04:31:04.086Z,99002.63
2023-01-21T04:33:31.561Z,99001.28
2023-01-21T04:35:59.593Z,99009.16
2023-01-21T04:38:27.046Z,99005.78
2023-01-21T04:40:54.511Z,99016.31
2023-01-21T04:43:21.700Z,99024.09
2023-01-21T04:45:50.154Z,99032.72
2023-01-21T04:48:17.678Z,99029.44
2023-01-21T04:50:46.101Z,99030.28
2023-01-21T04:53:13.302Z,99028.84
2023-01-21T04:55:40.727Z,99028.59
2023-01-21T04:58:07.931Z,99029.31
2023-01-21T05:00:35.154Z,99019.72
2023-01-21T05:03:02.579Z,99031.94
2023-01-21T05:05:30.020Z,99040.22
2023-01-21T05:07:57.208Z,99041.88
2023-01-21T05:10:24.643Z,99040.50
2023-01-21T05:12:51.817Z,99039.75
2023-01-21T05:15:19.149Z,99045.09
2023-01-21T05:17:46.643Z,99046.44
2023-01-21T05:20:13.828Z,99044.34
2023-01-21T05:22:40.961Z,99041.72
2023-01-21T05:25:08.637Z,99048.69
2023-01-21T05:27:35.925Z,99051.50
2023-01-21T05:30:03.141Z,99054.56
2023-01-21T05:32:30.745Z,99066.03
2023-01-21T05:34:57.944Z,99064.59
2023-01-21T05:37:25.066Z,99068.09
2023-01-21T05:39:52.559Z,99063.13
2023-01-21T05:42:19.720Z,99060.84
2023-01-21T05:44:46.865Z,99060.59
2023-01-21T05:47:14.296Z,99063.09
2023-01-21T05:49:41.437Z,99073.94
2023-01-21T05:52:08.606Z,99075.50
2023-01-21T05:54:36.042Z,99072.97
2023-01-21T05:57:03.256Z,99066.97
2023-01-21T05:59:30.649Z,99071.50
2023-01-21T06:01:58.122Z,99079.75
2023-01-21T06:04:30.518Z,99078.69
2023-01-21T06:06:57.993Z,99084.97
2023-01-21T06:09:25.506Z,99095.22
2023-01-21T06:11:52.738Z,99104.06
2023-01-21T06:14:19.995Z,99095.03
2023-01-21T06:16:47.401Z,99088.41
2023-01-21T06:19:14.644Z,99092.03
2023-01-21T06:21:41.871Z,99097.34
2023-01-21T06:24:09.340Z,99098.56
2023-01-21T06:26:36.547Z,99106.81
2023-01-21T06:29:03.755Z,99112.00
2023-01-21T06:31:31.717Z,99114.19
2023-01-21T06:33:59.199Z,99123.09
2023-01-21T06:36:26.332Z,99133.53
2023-01-21T06:38:53.819Z,99130.06
2023-01-21T06:41:20.971Z,99129.12
2023-01-21T06:43:48.162Z,99136.56
2023-01-21T06:46:15.683Z,99139.13
2023-01-21T06:48:43.307Z,99139.22
2023-01-21T06:51:10.553Z,99133.41
2023-01-21T06:53:38.106Z,99129.25
2023-01-21T06:56:05.345Z,99135.34
2023-01-21T06:58:32.526Z,99136.09
2023-01-21T07:01:00.141Z,99144.09
2023-01-21T07:03:27.315Z,99142.06
2023-01-21T07:05:54.529Z,99143.25
2023-01-21T07:08:22.059Z,99140.84
2023-01-21T07:10:49.275Z,99142.75
2023-01-21T07:13:16.430Z,99149.19
2023-01-21T07:15:43.926Z,99154.25
2023-01-21T07:18:11.107Z,99164.69
2023-01-21T07:20:40.920Z,99167.00
2023-01-21T07:23:08.496Z,99165.06
2023-01-21T07:25:37.415Z,99178.47
2023-01-21T07:28:04.670Z,99189.75
2023-01-21T07:30:32.164Z,99188.41
2023-01-21T07:33:04.410Z,99197.25
2023-01-21T07:35:32.051Z,99206.25
2023-01-21T07:37:59.228Z,99211.97
2023-01-21T07:40:26.463Z,99208.47
2023-01-21T07:42:54.505Z,99210.25
2023-01-21T07:45:22.153Z,99217.44
2023-01-21T07:47:49.328Z,99209.44
2023-01-21T07:50:17.015Z,99210.06
2023-01-21T07:52:44.157Z,99211.59
2023-01-21T07:55:12.733Z,99219.50
2023-01-21T07:57:40.288Z,99224.50
2023-01-21T08:00:07.756Z,99231.63
2023-01-21T08:02:38.863Z,99231.75
2023-01-21T08:05:06.858Z,99234.66
2023-01-21T08:07:34.034Z,99244.19
2023-01-21T08:10:01.198Z,99234.47
2023-01-21T08:12:28.648Z,99235.19
2023-01-21T08:14:55.811Z,99236.91
2023-01-21T08:17:23.021Z,99243.09
2023-01-21T08:19:50.590Z,99241.88
2023-01-21T08:22:17.756Z,99240.88
2023-01-21T08:24:44.931Z,99244.16
2023-01-21T08:27:12.351Z,99244.91
2023-01-21T08:29:39.553Z,99237.50
2023-01-21T08:32:06.735Z,99240.41
2023-01-21T08:34:34.190Z,99246.59
2023-01-21T08:37:01.518Z,99252.06
2023-01-21T08:39:28.797Z,99248.78
2023-01-21T08:41:56.230Z,99258.38
2023-01-21T08:44:23.466Z,99265.66
2023-01-21T08:46:50.648Z,99269.31
2023-01-21T08:49:18.081Z,99263.38
2023-01-21T08:51:45.433Z,99254.25
2023-01-21T08:54:12.589Z,99260.34
2023-01-21T08:56:40.046Z,99277.56
2023-01-21T08:59:07.295Z,99257.38
2023-01-21T09:01:36.218Z,99271.03
2023-01-21T09:04:03.711Z,99265.19
2023-01-21T09:06:30.867Z,99269.44
2023-01-21T09:08:58.418Z,99266.66
2023-01-21T09:11:26.672Z,99258.88
2023-01-21T09:13:53.890Z,99270.66
2023-01-21T09:16:21.598Z,99277.22
2023-01-21T09:18:49.170Z,99271.03
2023-01-21T09:21:16.562Z,99269.78
2023-01-21T09:23:44.465Z,99265.88
2023-01-21T09:26:21.442Z,99261.41
2023-01-21T09:28:55.401Z,99270.03
2023-01-21T09:31:23.892Z,99274.75
2023-01-21T09:33:52.250Z,99271.47
2023-01-21T09:36:20.519Z,99270.22
2023-01-21T09:38:48.360Z,99267.56
2023-01-21T09:41:24.125Z,99275.13
2023-01-21T09:43:59.596Z,99277.78
2023-01-21T09:46:38.189Z,99281.88
2023-01-21T09:49:06.548Z,99276.19
2023-01-21T09:51:47.510Z,99278.31
2023-01-21T09:54:19.749Z,99273.41
2023-01-21T09:57:05.665Z,99266.53
2023-01-21T09:59:35.960Z,99283.06
2023-01-21T10:02:03.633Z,99276.84
2023-01-21T10:04:36.708Z,99273.28
2023-01-21T10:07:07.930Z,99281.22
2023-01-21T10:09:38.543Z,99272.06
2023-01-21T10:12:12.270Z,99270.09
2023-01-21T10:14:39.675Z,99275.53
2023-01-21T10:17:06.833Z,99273.50
2023-01-21T10:19:36.475Z,99272.56
2023-01-21T10:22:05.539Z,99276.00
2023-01-21T10:24:32.678Z,99274.22
2023-01-21T10:26:59.814Z,99281.81
2023-01-21T10:29:27.333Z,99274.91
2023-01-21T10:31:59.349Z,99280.72
2023-01-21T10:34:30.657Z,99283.09
2023-01-21T10:36:57.816Z,99288.25
2023-01-21T10:39:39.392Z,99279.75
2023-01-21T10:42:06.784Z,99288.88
2023-01-21T10:44:52.300Z,99283.94
2023-01-21T10:47:38.506Z,99281.38
2023-01-21T10:50:18.838Z,99292.72
2023-01-21T10:52:48.432Z,99289.09
2023-01-21T10:55:30.936Z,99298.06
2023-01-21T10:58:02.181Z,99296.84
2023-01-21T11:00:39.535Z,99287.22
2023-01-21T11:03:25.818Z,99290.16
2023-01-21T11:05:52.997Z,99281.75
2023-01-21T11:08:21.489Z,99281.78
2023-01-21T11:10:49.656Z,99274.97
2023-01-21T11:13:16.841Z,99275.06
2023-01-21T11:15:48.547Z,99280.19
2023-01-21T11:18:34.432Z,99286.03
2023-01-21T11:21:28.027Z,99281.31
2023-01-21T11:23:56.055Z,99287.31
2023-01-21T11:26:28.330Z,99280.19
2023-01-21T11:29:14.620Z,99280.38
2023-01-21T11:31:42.566Z,99274.34
2023-01-21T11:34:13.813Z,99275.41
2023-01-21T11:37:01.512Z,99275.63
2023-01-21T11:39:29.720Z,99280.34
2023-01-21T11:41:57.555Z,99270.81
2023-01-21T11:44:24.933Z,99271.84
2023-01-21T11:46:52.448Z,99265.16
2023-01-21T11:49:24.238Z,99262.22
2023-01-21T11:51:51.663Z,99265.16
2023-01-21T11:54:22.725Z,99263.09
2023-01-21T11:56:52.724Z,99271.25
2023-01-21T11:59:25.158Z,99269.81
2023-01-21T12:02:00.331Z,99264.97
2023-01-21T12:04:27.911Z,99271.91
2023-01-21T12:06:58.101Z,99281.47
2023-01-21T12:09:25.372Z,99279.66
2023-01-21T12:12:07.953Z,99276.81
2023-01-21T12:14:41.506Z,99269.84
2023-01-21T12:17:17.921Z,99270.13
2023-01-21T12:20:03.448Z,99274.00
2023-01-21T12:22:49.534Z,99271.00
2023-01-21T12:25:23.062Z,99280.34
2023-01-21T12:28:05.708Z,99283.47
2023-01-21T12:30:45.997Z,99293.72
2023-01-21T12:33:33.490Z,99291.59
2023-01-21T12:36:01.978Z,99288.47
2023-01-21T12:38:55.858Z,99290.88
2023-01-21T12:41:23.903Z,99290.06
2023-01-21T12:43:52.741Z,99297.63
2023-01-21T12:46:23.033Z,99301.75
2023-01-21T12:49:07.864Z,99304.09
2023-01-21T12:51:36.899Z,99309.00
2023-01-21T12:54:14.925Z,99304.41
2023-01-21T12:56:43.927Z,99312.56
2023-01-21T12:59:11.092Z,99304.44
2023-01-21T13:01:38.235Z,99306.78
2023-01-21T13:04:23.848Z,99317.97
2023-01-21T13:06:54.449Z,99324.19
2023-01-21T13:09:25.319Z,99321.94
2023-01-21T13:11:53.561Z,99323.63
2023-01-21T13:14:23.855Z,99328.44
2023-01-21T13:16:52.997Z,99337.47
2023-01-21T13:19:20.166Z,99335.06
2023-01-21T13:21:51.961Z,99334.34
2023-01-21T13:24:22.499Z,99333.03
2023-01-21T13:27:05.087Z,99338.97
2023-01-21T13:29:32.505Z,99340.47
2023-01-21T13:31:59.767Z,99345.13
2023-01-21T13:34:36.878Z,99344.91
2023-01-21T13:37:23.949Z,99346.19
2023-01-21T13:40:11.907Z,99346.28
2023-01-21T13:42:45.366Z,99350.81
2023-01-21T13:45:15.814Z,99362.22
2023-01-21T13:48:01.900Z,99361.13
2023-01-21T13:50:38.524Z,99364.31
2023-01-21T13:53:13.761Z,99370.88
2023-01-21T13:55:45.380Z,99359.69
2023-01-21T13:58:13.521Z,99372.09
2023-01-21T14:00:40.755Z,99370.38
2023-01-21T14:03:23.360Z,99373.66
2023-01-21T14:06:05.962Z,99376.00
2023-01-21T14:08:34.877Z,99387.22
2023-01-21T14:11:04.153Z,99389.31
2023-01-21T14:14:09.828Z,99386.19
2023-01-21T14:16:40.153Z,99382.72
2023-01-21T14:19:19.157Z,99391.97
2023-01-21T14:21:49.775Z,99399.28
2023-01-21T14:24:26.297Z,99396.28
2023-01-21T14:26:53.842Z,99395.53
2023-01-21T14:29:23.786Z,99404.34
2023-01-21T14:31:52.136Z,99404.03
2023-01-21T14:34:27.708Z,99409.06
2023-01-21T14:36:57.899Z,99406.81
2023-01-21T14:39:31.256Z,99402.25
2023-01-21T14:42:04.561Z,99411.78
2023-01-21T14:44:38.518Z,99408.19
2023-01-21T14:47:11.693Z,99411.69
2023-01-21T14:49:39.743Z,99408.88
2023-01-21T14:52:06.941Z,99411.25
2023-01-21T14:54:34.158Z,99413.59
2023-01-21T14:57:13.784Z,99410.75
2023-01-21T14:59:46.297Z,99410.38
2023-01-21T15:02:26.344Z,99405.06
2023-01-21T15:04:57.076Z,99410.53
2023-01-21T15:07:25.426Z,99406.75
2023-01-21T15:09:56.216Z,99420.31
2023-01-21T15:12:30.379Z,99418.78
2023-01-21T15:14:59.804Z,99418.41
2023-01-21T15:17:48.812Z,99424.09
2023-01-21T15:20:35.069Z,99431.88
2023-01-21T15:23:23.411Z,99436.66
2023-01-21T15:26:09.346Z,99439.13
2023-01-21T15:28:45.935Z,99445.94
2023-01-21T15:31:33.431Z,99448.91
2023-01-21T15:34:04.381Z,99446.13
2023-01-21T15:36:34.247Z,99443.16
2023-01-21T15:39:02.618Z,99445.72
2023-01-21T15:41:39.632Z,99448.34
2023-01-21T15:44:11.107Z,99450.81
2023-01-21T15:46:48.193Z,99452.41
2023-01-21T15:49:31.182Z,99444.06
2023-01-21T15:52:23.777Z,99450.03
2023-01-21T15:55:03.015Z,99450.06
2023-01-21T15:57:42.627Z,99460.19
2023-01-21T16:00:17.981Z,99461.75
2023-01-21T16:02:51.508Z,99473.53
2023-01-21T16:05:21.109Z,99472.19
2023-01-21T16:07:51.525Z,99470.91
2023-01-21T16:10:42.163Z,99469.50
2023-01-21T16:13:16.862Z,99470.22
2023-01-21T16:16:02.414Z,99481.44
2023-01-21T16:18:33.084Z,99483.37
2023-01-21T16:21:00.565Z,99482.13
2023-01-21T16:23:28.699Z,99484.78
2023-01-21T16:25:56.384Z,99491.56
2023-01-21T16:28:23.669Z,99489.75
2023-01-21T16:30:55.275Z,99495.41
2023-01-21T16:33:23.634Z,99491.44
2023-01-21T16:35:51.641Z,99496.06
2023-01-21T16:38:19.755Z,99494.44
2023-01-21T16:40:51.338Z,99497.56
2023-01-21T16:43:21.701Z,99503.84
2023-01-21T16:45:53.612Z,99499.47
2023-01-21T16:48:25.075Z,99501.59
2023-01-21T16:50:52.749Z,99499.19
2023-01-21T16:53:20.565Z,99504.44
2023-01-21T16:55:48.750Z,99503.31
2023-01-21T16:58:22.214Z,99506.50
2023-01-21T17:00:57.867Z,99510.41
2023-01-21T17:03:25.466Z,99508.59
2023-01-21T17:05:53.419Z,99512.44
2023-01-21T17:08:20.818Z,99510.25
2023-01-21T17:10:58.660Z,99518.13
2023-01-21T17:13:26.208Z,99512.00
2023-01-21T17:15:58.550Z,99516.88
2023-01-21T17:18:27.233Z,99518.56
2023-01-21T17:20:54.834Z,99523.97
2023-01-21T17:23:23.058Z,99526.00
2023-01-21T17:25:52.573Z,99522.63
2023-01-21T17:28:30.514Z,99517.88
2023-01-21T17:31:16.453Z,99517.34
2023-01-21T17:33:44.000Z,99520.63
2023-01-21T17:36:12.222Z,99522.28
2023-01-21T17:38:43.453Z,99522.28
2023-01-21T17:41:26.852Z,99527.75
2023-01-21T17:43:55.721Z,99521.66
2023-01-21T17:46:23.756Z,99525.41
2023-01-21T17:48:52.094Z,99529.13
2023-01-21T17:51:20.787Z,99533.22
2023-01-21T17:54:06.651Z,99541.19
2023-01-21T17:56:52.734Z,99545.38
2023-01-21T17:59:26.479Z,99546.53
2023-01-21T18:01:55.021Z,99546.41
2023-01-21T18:04:23.161Z,99543.59
2023-01-21T18:06:52.166Z,99544.63
2023-01-21T18:09:19.802Z,99557.94
2023-01-21T18:11:51.125Z,99556.03
2023-01-21T18:14:19.251Z,99557.75
2023-01-21T18:16:47.155Z,99565.31
2023-01-21T18:19:33.873Z,99568.88
2023-01-21T18:22:02.160Z,99573.19
2023-01-21T18:24:30.051Z,99578.50
2023-01-21T18:26:57.885Z,99583.31
2023-01-21T18:29:30.339Z,99584.38
2023-01-21T18:31:58.112Z,99581.09
2023-01-21T18:34:25.843Z,99592.78
2023-01-21T18:36:53.173Z,99596.81
2023-01-21T18:39:20.737Z,99586.19
2023-01-21T18:41:48.374Z,99583.63
2023-01-21T18:44:16.282Z,99585.59
2023-01-21T18:46:43.775Z,99577.94
2023-01-21T18:49:16.437Z,99578.44
2023-01-21T18:51:43.793Z,99576.69
2023-01-21T18:54:11.495Z,99575.09
2023-01-21T18:56:39.017Z,99578.34
2023-01-21T18:59:10.689Z,99583.00
2023-01-21T19:01:38.148Z,99584.56
2023-01-21T19:04:09.542Z,99590.16
2023-01-21T19:06:37.216Z,99595.47
2023-01-21T19:09:04.629Z,99602.81
2023-01-21T19:11:33.314Z,99599.34
2023-01-21T19:14:02.082Z,99601.56
2023-01-21T19:16:29.511Z,99610.66
2023-01-21T19:18:57.137Z,99613.44
2023-01-21T19:21:24.600Z,99614.63
2023-01-21T19:23:52.076Z,99613.19
2023-01-21T19:26:19.764Z,99621.97
2023-01-21T19:28:47.159Z,99624.12
2023-01-21T19:31:14.668Z,99629.88
2023-01-21T19:33:45.608Z,99632.25
2023-01-21T19:36:15.947Z,99637.63
2023-01-21T19:38:45.588Z,99637.25
2023-01-21T19:41:12.947Z,99638.16
2023-01-21T19:43:41.269Z,99633.38
2023-01-21T19:46:12.569Z,99635.28
2023-01-21T19:48:40.155Z,99631.91
2023-01-21T19:51:07.573Z,99635.59
2023-01-21T19:53:35.278Z,99628.75
2023-01-21T19:56:04.012Z,99630.94
2023-01-21T19:58:31.417Z,99623.94
2023-01-21T20:00:58.965Z,99617.56
2023-01-21T20:03:27.909Z,99622.19
2023-01-21T20:06:01.681Z,99626.91
2023-01-21T20:08:30.596Z,99619.56
2023-01-21T20:10:58.027Z,99615.06
2023-01-21T20:13:26.104Z,99619.78
2023-01-21T20:15:53.798Z,99623.56
2023-01-21T20:18:22.493Z,99623.59
2023-01-21T20:20:49.822Z,99626.53
2023-01-21T20:23:17.754Z,99622.00
2023-01-21T20:25:45.778Z,99620.25
2023-01-21T20:28:20.678Z,99626.63
2023-01-21T20:30:48.589Z,99626.28
2023-01-21T20:33:16.944Z,99621.00
2023-01-21T20:35:45.072Z,99631.97
2023-01-21T20:38:13.703Z,99634.78
2023-01-21T20:40:41.377Z,99632.66
2023-01-21T20:43:09.653Z,99633.09
2023-01-21T20:45:40.022Z,99637.13
2023-01-21T20:48:07.282Z,99635.84
2023-01-21T20:50:37.467Z,99646.09
2023-01-21T20:53:05.156Z,99637.16
2023-01-21T20:55:32.625Z,99647.16
2023-01-21T20:57:59.903Z,99645.59
2023-01-21T21:00:28.890Z,99644.13
2023-01-21T21:02:56.394Z,99651.81
2023-01-21T21:05:24.149Z,99640.06
2023-01-21T21:07:51.664Z,99647.62
2023-01-21T21:10:19.434Z,99636.81
2023-01-21T21:12:47.354Z,99645.06
2023-01-21T21:15:15.217Z,99640.13
2023-01-21T21:17:43.726Z,99645.28
2023-01-21T21:20:31.316Z,99640.88
2023-01-21T21:22:58.759Z,99650.06
2023-01-21T21:25:30.122Z,99641.41
2023-01-21T21:27:58.222Z,99646.97
2023-01-21T21:30:26.999Z,99640.97
2023-01-21T21:32:55.404Z,99648.38
2023-01-21T21:35:24.396Z,99651.13
2023-01-21T21:37:52.382Z,99658.91
2023-01-21T21:40:20.737Z,99647.50
2023-01-21T21:43:06.621Z,99645.56
2023-01-21T21:45:35.305Z,99652.81
2023-01-21T21:48:21.676Z,99651.97
2023-01-21T21:50:58.325Z,99658.28
2023-01-21T21:53:25.614Z,99656.44
2023-01-21T21:55:53.216Z,99667.09
2023-01-21T21:58:20.373Z,99667.66
2023-01-21T22:00:52.648Z,99670.44
2023-01-21T22:03:20.197Z,99671.84
2023-01-21T22:05:51.301Z,99667.72
2023-01-21T22:08:18.585Z,99670.03
2023-01-21T22:10:46.694Z,99671.78
2023-01-21T22:13:13.882Z,99665.34
2023-01-21T22:15:41.152Z,99658.25
2023-01-21T22:18:08.634Z,99657.75
2023-01-21T22:20:35.785Z,99652.19
2023-01-21T22:23:02.961Z,99662.97
2023-01-21T22:25:30.438Z,99647.06
2023-01-21T22:27:58.706Z,99647.38
2023-01-21T22:30:25.919Z,99651.47
2023-01-21T22:32:53.398Z,99646.94
2023-01-21T22:35:20.557Z,99654.12
2023-01-21T22:37:47.753Z,99648.53
2023-01-21T22:40:15.245Z,99648.03
2023-01-21T22:42:42.434Z,99641.94
2023-01-21T22:45:09.779Z,99644.81
2023-01-21T22:47:37.399Z,99652.59
2023-01-21T22:50:04.788Z,99648.66
2023-01-21T22:52:31.977Z,99643.13
2023-01-21T22:54:59.413Z,99646.75
2023-01-21T22:57:26.858Z,99641.78
2023-01-21T22:59:54.118Z,99644.72
2023-01-21T23:02:25.379Z,99638.75
2023-01-21T23:04:52.656Z,99624.66
2023-01-21T23:07:19.900Z,99629.75
2023-01-21T23:09:47.356Z,99631.75
2023-01-21T23:12:18.780Z,99651.00
2023-01-21T23:14:46.199Z,99660.28
2023-01-21T23:17:14.326Z,99663.88
2023-01-21T23:19:41.509Z,99655.66
2023-01-21T23:22:09.078Z,99655.97
2023-01-21T23:24:36.638Z,99648.28
2023-01-21T23:27:03.952Z,99649.03
2023-01-21T23:29:31.224Z,99650.31
2023-01-21T23:31:58.744Z,99660.69
2023-01-21T23:34:25.971Z,99662.56
2023-01-21T23:36:53.698Z,99665.06
2023-01-21T23:39:21.551Z,99655.63
2023-01-21T23:41:48.714Z,99659.25
2023-01-21T23:44:16.061Z,99646.75
2023-01-21T23:46:43.764Z,99642.81
2023-01-21T23:49:10.916Z,99654.97
2023-01-21T23:51:38.101Z,99654.66
2023-01-21T23:54:05.703Z,99661.81
2023-01-21T23:56:32.896Z,99654.00
2023-01-21T23:59:00.162Z,99661.91
